Time;durP1;ratioP1;P1;durP2;ratioP2;P2;SDS_P1;SDS_P2;PMS_P1;PMS_P2;Temp;Humidity;BMP_temperature;BMP_pressure;BME280_temperature;BME280_humidity;BME280_pressure;Samples;Min_cycle;Max_cycle;Signal;HPM_P1;HPM_P2
2023/08/24 00:02:10;;;;;;;22.02;15.75;;;;;;;;;;5044850;28;20049;-79
2023/08/24 00:04:56;;;;;;;17.77;15.32;;;;;;;;;;5031536;28;20045;-79
2023/08/24 00:07:43;;;;;;;19.40;15.93;;;;;;;;;;5031411;28;20520;-78
2023/08/24 00:10:28;;;;;;;17.20;15.32;;;;;;;;;;5031813;28;20038;-77
2023/08/24 00:13:15;;;;;;;17.60;15.13;;;;;;;;;;5030849;28;20041;-79
2023/08/24 00:16:01;;;;;;;18.27;14.85;;;;;;;;;;5031398;28;20484;-79
2023/08/24 00:18:47;;;;;;;20.92;16.48;;;;;;;;;;5036822;28;20053;-79
2023/08/24 00:21:32;;;;;;;21.05;16.17;;;;;;;;;;5030159;28;20484;-78
2023/08/24 00:24:18;;;;;;;25.42;16.80;;;;;;;;;;5031184;28;20049;-78
2023/08/24 00:27:04;;;;;;;20.70;17.38;;;;;;;;;;5037215;28;20487;-80
2023/08/24 00:29:49;;;;;;;21.67;18.17;;;;;;;;;;5031321;28;20045;-79
2023/08/24 00:32:36;;;;;;;20.65;16.40;;;;;;;;;;5030704;28;20053;-79
2023/08/24 00:35:22;;;;;;;25.02;17.08;;;;;;;;;;5031000;28;20045;-81
2023/08/24 00:38:07;;;;;;;21.42;17.08;;;;;;;;;;5036587;28;20492;-79
2023/08/24 00:40:53;;;;;;;25.42;18.17;;;;;;;;;;5035405;28;20049;-79
2023/08/24 00:43:38;;;;;;;19.88;17.02;;;;;;;;;;5036866;28;20046;-78
2023/08/24 00:46:26;;;;;;;20.50;16.42;;;;;;;;;;5036896;28;20693;-82
2023/08/24 00:49:12;;;;;;;20.60;17.75;;;;;;;;;;5033931;28;20057;-78
2023/08/24 00:51:57;;;;;;;22.88;16.80;;;;;;;;;;5029964;28;20037;-78
2023/08/24 00:54:43;;;;;;;21.55;16.90;;;;;;;;;;5030352;28;20041;-79
2023/08/24 00:57:29;;;;;;;20.38;17.08;;;;;;;;;;5030442;28;20049;-79
2023/08/24 01:00:15;;;;;;;19.60;17.17;;;;;;;;;;5036298;28;20042;-79
2023/08/24 01:03:00;;;;;;;19.60;16.95;;;;;;;;;;5035794;28;20052;-78
2023/08/24 01:05:46;;;;;;;23.30;17.70;;;;;;;;;;5030551;28;20033;-80
2023/08/24 01:08:32;;;;;;;22.20;18.20;;;;;;;;;;5036111;28;20476;-79
2023/08/24 01:11:31;;;;;;;19.13;16.33;;;;;;;;;;5030575;28;20042;-79
2023/08/24 01:14:28;;;;;;;22.13;17.50;;;;;;;;;;5036229;28;20049;-79
2023/08/24 01:17:17;;;;;;;19.45;16.73;;;;;;;;;;5030190;28;20053;-78
2023/08/24 01:20:05;;;;;;;21.98;17.33;;;;;;;;;;5036178;28;20496;-79
2023/08/24 01:23:19;;;;;;;19.83;16.50;;;;;;;;;;5029180;28;20042;-77
2023/08/24 01:26:18;;;;;;;19.83;17.42;;;;;;;;;;5036336;28;20042;-79
2023/08/24 01:29:05;;;;;;;21.17;16.85;;;;;;;;;;5030766;28;20037;-78
2023/08/24 01:31:50;;;;;;;19.80;17.70;;;;;;;;;;5029836;28;20033;-79
2023/08/24 01:34:38;;;;;;;25.20;18.15;;;;;;;;;;5035897;28;20045;-79
2023/08/24 01:37:23;;;;;;;24.77;17.65;;;;;;;;;;5029508;28;20061;-80
2023/08/24 01:40:29;;;;;;;21.98;18.05;;;;;;;;;;5036368;28;20045;-79
2023/08/24 01:43:15;;;;;;;23.98;19.23;;;;;;;;;;5030766;28;20037;-78
2023/08/24 01:46:05;;;;;;;22.13;17.70;;;;;;;;;;5030156;28;20057;-79
2023/08/24 01:48:53;;;;;;;20.45;16.85;;;;;;;;;;5030011;28;20049;-81
2023/08/24 01:51:39;;;;;;;20.95;17.23;;;;;;;;;;5042779;28;20407;-78
2023/08/24 01:54:24;;;;;;;21.30;15.93;;;;;;;;;;5026200;28;20053;-79
2023/08/24 01:57:10;;;;;;;19.90;16.90;;;;;;;;;;5032942;28;20033;-80
2023/08/24 01:59:56;;;;;;;19.90;16.60;;;;;;;;;;5039835;28;20033;-78
2023/08/24 02:02:42;;;;;;;20.02;17.17;;;;;;;;;;5047167;28;20049;-79
2023/08/24 02:05:28;;;;;;;19.40;16.42;;;;;;;;;;5039345;28;20411;-80
2023/08/24 02:08:13;;;;;;;18.85;16.95;;;;;;;;;;5033892;28;20037;-80
2023/08/24 02:10:59;;;;;;;18.02;16.13;;;;;;;;;;5039483;28;20045;-78
2023/08/24 02:13:45;;;;;;;27.15;17.73;;;;;;;;;;5033492;28;20480;-79
2023/08/24 02:16:33;;;;;;;20.27;17.67;;;;;;;;;;5039981;28;20049;-78
2023/08/24 02:19:19;;;;;;;31.75;24.10;;;;;;;;;;5039624;28;20046;-79
2023/08/24 02:22:04;;;;;;;32.92;26.17;;;;;;;;;;5034159;28;20399;-78
2023/08/24 02:24:51;;;;;;;43.83;31.90;;;;;;;;;;5033582;28;20395;-79
2023/08/24 02:27:36;;;;;;;76.28;53.42;;;;;;;;;;5039203;28;20045;-79
2023/08/24 02:30:21;;;;;;;29.92;23.10;;;;;;;;;;5033504;28;20399;-80
2023/08/24 02:33:07;;;;;;;27.58;20.67;;;;;;;;;;5033330;28;20041;-80
2023/08/24 02:35:53;;;;;;;22.23;19.77;;;;;;;;;;5033393;28;20045;-78
2023/08/24 02:38:38;;;;;;;22.33;18.38;;;;;;;;;;5039114;28;20413;-79
2023/08/24 02:41:24;;;;;;;20.90;17.63;;;;;;;;;;5039173;28;20041;-79
2023/08/24 02:44:09;;;;;;;24.23;19.15;;;;;;;;;;5033158;28;20484;-80
2023/08/24 02:46:56;;;;;;;20.77;18.58;;;;;;;;;;5045516;28;20045;-79
2023/08/24 02:49:41;;;;;;;21.98;18.00;;;;;;;;;;5035097;28;20046;-80
2023/08/24 02:52:26;;;;;;;23.58;19.23;;;;;;;;;;5033357;28;20484;-79
2023/08/24 02:55:11;;;;;;;21.73;17.90;;;;;;;;;;5024876;28;20045;-79
2023/08/24 02:57:57;;;;;;;30.73;22.25;;;;;;;;;;5033162;28;20046;-80
2023/08/24 03:00:43;;;;;;;29.58;22.50;;;;;;;;;;5032077;28;20041;-78
2023/08/24 03:03:28;;;;;;;30.95;23.73;;;;;;;;;;5037673;28;20045;-78
2023/08/24 03:06:14;;;;;;;36.05;24.08;;;;;;;;;;5032404;28;20053;-78
2023/08/24 03:09:03;;;;;;;29.15;22.40;;;;;;;;;;5038669;28;20042;-78
2023/08/24 03:11:49;;;;;;;27.70;22.38;;;;;;;;;;5038695;28;20477;-79
2023/08/24 03:14:33;;;;;;;26.33;22.33;;;;;;;;;;5038304;28;20042;-78
2023/08/24 03:17:20;;;;;;;26.48;19.88;;;;;;;;;;5038369;28;20045;-77
2023/08/24 03:20:07;;;;;;;27.23;19.20;;;;;;;;;;5033033;28;20041;-77
2023/08/24 03:22:52;;;;;;;24.73;19.70;;;;;;;;;;5024539;28;20057;-78
2023/08/24 03:25:42;;;;;;;19.77;17.30;;;;;;;;;;5038081;28;20049;-78
2023/08/24 03:28:28;;;;;;;20.85;17.30;;;;;;;;;;5037970;28;20049;-78
2023/08/24 03:31:13;;;;;;;21.95;18.88;;;;;;;;;;5029266;28;20045;-81
2023/08/24 03:34:04;;;;;;;20.17;17.67;;;;;;;;;;5036655;28;20049;-81
2023/08/24 03:36:50;;;;;;;26.38;19.48;;;;;;;;;;5037502;28;20400;-78
2023/08/24 03:39:38;;;;;;;20.25;17.58;;;;;;;;;;5032231;28;20041;-79
2023/08/24 03:42:33;;;;;;;21.42;17.35;;;;;;;;;;5037715;28;20049;-81
2023/08/24 03:45:48;;;;;;;21.25;17.77;;;;;;;;;;5031956;28;20041;-78
2023/08/24 03:48:33;;;;;;;19.40;17.10;;;;;;;;;;5036922;28;20041;-77
2023/08/24 03:51:19;;;;;;;26.73;18.80;;;;;;;;;;5037623;28;20046;-79
2023/08/24 03:54:06;;;;;;;24.95;17.23;;;;;;;;;;5044528;28;20037;-80
2023/08/24 03:56:51;;;;;;;22.80;17.65;;;;;;;;;;5037315;28;20407;-77
2023/08/24 03:59:37;;;;;;;21.00;17.23;;;;;;;;;;5031859;28;20041;-78
2023/08/24 04:02:22;;;;;;;23.95;17.85;;;;;;;;;;5037970;28;20392;-78
2023/08/24 04:05:08;;;;;;;19.50;17.40;;;;;;;;;;5037622;28;21821;-78
2023/08/24 04:07:54;;;;;;;21.45;18.00;;;;;;;;;;5037715;28;20045;-78
2023/08/24 04:10:39;;;;;;;22.98;17.60;;;;;;;;;;5037181;28;20053;-78
2023/08/24 04:13:26;;;;;;;21.08;17.65;;;;;;;;;;5037613;28;20049;-78
2023/08/24 04:16:11;;;;;;;22.20;17.77;;;;;;;;;;5031679;28;20045;-77
2023/08/24 04:18:57;;;;;;;20.00;17.88;;;;;;;;;;5030261;28;20057;-77
2023/08/24 04:21:43;;;;;;;23.08;18.00;;;;;;;;;;5023418;28;20396;-79
2023/08/24 04:24:28;;;;;;;22.77;17.95;;;;;;;;;;5031855;28;20041;-78
2023/08/24 04:27:14;;;;;;;20.08;17.90;;;;;;;;;;5031516;28;20037;-78
2023/08/24 04:30:00;;;;;;;24.90;17.00;;;;;;;;;;5031249;28;20400;-78
2023/08/24 04:32:46;;;;;;;34.25;22.38;;;;;;;;;;5030284;28;20049;-79
2023/08/24 04:35:35;;;;;;;26.02;21.10;;;;;;;;;;5031283;28;20041;-79
2023/08/24 04:38:21;;;;;;;24.90;19.48;;;;;;;;;;5030033;28;20037;-78
2023/08/24 04:41:09;;;;;;;26.40;18.67;;;;;;;;;;5030978;28;20041;-78
2023/08/24 04:43:54;;;;;;;22.42;17.10;;;;;;;;;;5031812;28;20053;-79
2023/08/24 04:46:40;;;;;;;22.65;18.27;;;;;;;;;;5031120;28;20041;-77
2023/08/24 04:49:25;;;;;;;25.52;17.58;;;;;;;;;;5031194;28;20041;-80
2023/08/24 04:52:11;;;;;;;26.45;18.13;;;;;;;;;;5031817;28;20046;-79
2023/08/24 04:54:56;;;;;;;21.13;16.58;;;;;;;;;;5030309;28;20045;-79
2023/08/24 04:57:42;;;;;;;21.90;17.05;;;;;;;;;;5044342;28;20488;-79
2023/08/24 05:00:28;;;;;;;25.20;15.93;;;;;;;;;;5029862;28;20045;-78
2023/08/24 05:03:13;;;;;;;25.58;16.70;;;;;;;;;;5030030;28;20049;-79
2023/08/24 05:05:59;;;;;;;18.92;15.65;;;;;;;;;;5031158;28;20045;-79
2023/08/24 05:08:45;;;;;;;24.45;15.43;;;;;;;;;;5030336;28;20045;-79
2023/08/24 05:11:30;;;;;;;19.75;15.25;;;;;;;;;;5030485;28;20400;-79
2023/08/24 05:14:16;;;;;;;21.80;14.65;;;;;;;;;;5036274;28;20045;-79
2023/08/24 05:17:01;;;;;;;20.08;14.60;;;;;;;;;;5036115;28;20053;-79
2023/08/24 05:19:51;;;;;;;17.73;14.52;;;;;;;;;;5029656;28;20042;-79
2023/08/24 05:22:36;;;;;;;16.73;13.55;;;;;;;;;;5030088;28;20037;-78
2023/08/24 05:25:22;;;;;;;16.88;13.25;;;;;;;;;;5036006;28;20045;-80
2023/08/24 05:28:07;;;;;;;18.92;14.50;;;;;;;;;;5028654;28;20037;-79
2023/08/24 05:30:54;;;;;;;20.17;13.32;;;;;;;;;;5030504;28;20041;-78
2023/08/24 05:33:38;;;;;;;17.05;13.10;;;;;;;;;;5028985;28;20045;-78
2023/08/24 05:36:24;;;;;;;18.88;13.82;;;;;;;;;;5030080;28;20037;-79
2023/08/24 05:39:10;;;;;;;19.08;14.25;;;;;;;;;;5028917;28;20041;-79
2023/08/24 05:41:56;;;;;;;19.42;13.20;;;;;;;;;;5029149;28;20033;-79
2023/08/24 05:44:41;;;;;;;16.30;13.10;;;;;;;;;;5027903;28;20042;-80
2023/08/24 05:47:27;;;;;;;17.92;12.85;;;;;;;;;;5029981;28;20041;-78
2023/08/24 05:50:12;;;;;;;15.27;13.70;;;;;;;;;;5028857;28;20045;-79
2023/08/24 05:52:58;;;;;;;17.38;13.50;;;;;;;;;;5035388;28;20046;-79
2023/08/24 05:55:43;;;;;;;17.90;13.57;;;;;;;;;;5028425;28;20053;-79
2023/08/24 05:58:29;;;;;;;18.92;14.25;;;;;;;;;;5029401;28;20042;-80
2023/08/24 06:01:15;;;;;;;20.33;14.48;;;;;;;;;;5030176;28;20484;-79
2023/08/24 06:04:00;;;;;;;20.80;15.43;;;;;;;;;;5028455;28;20050;-79
2023/08/24 06:06:45;;;;;;;21.48;15.30;;;;;;;;;;5020668;28;20042;-79
2023/08/24 06:09:31;;;;;;;16.70;14.13;;;;;;;;;;5029288;28;20045;-80
2023/08/24 06:12:17;;;;;;;18.25;13.93;;;;;;;;;;5029584;28;20045;-80
2023/08/24 06:15:04;;;;;;;20.27;15.30;;;;;;;;;;5030059;28;20480;-79
2023/08/24 06:17:49;;;;;;;19.98;15.80;;;;;;;;;;5028597;28;20408;-78
2023/08/24 06:20:35;;;;;;;33.92;23.38;;;;;;;;;;5028496;28;20041;-79
2023/08/24 06:23:21;;;;;;;27.67;16.00;;;;;;;;;;5035013;28;20480;-81
2023/08/24 06:26:07;;;;;;;16.83;13.88;;;;;;;;;;5035419;28;20053;-80
2023/08/24 06:28:52;;;;;;;19.27;14.85;;;;;;;;;;5035161;28;20045;-77
2023/08/24 06:31:38;;;;;;;17.83;14.68;;;;;;;;;;5029583;28;20045;-79
2023/08/24 06:34:23;;;;;;;20.45;15.73;;;;;;;;;;5035202;28;20033;-78
2023/08/24 06:37:09;;;;;;;19.83;14.73;;;;;;;;;;5034501;28;20492;-78
2023/08/24 06:39:54;;;;;;;17.45;15.25;;;;;;;;;;5032494;28;20041;-78
2023/08/24 06:42:39;;;;;;;20.63;14.95;;;;;;;;;;5033490;28;20041;-77
2023/08/24 06:45:25;;;;;;;20.85;15.75;;;;;;;;;;5032860;28;20049;-77
2023/08/24 06:48:10;;;;;;;17.35;14.98;;;;;;;;;;5038540;28;20045;-80
2023/08/24 06:50:56;;;;;;;22.17;14.88;;;;;;;;;;5037690;28;20693;-79
2023/08/24 06:53:42;;;;;;;22.15;13.98;;;;;;;;;;5032159;28;20029;-78
2023/08/24 06:56:27;;;;;;;17.38;14.05;;;;;;;;;;5032319;28;20041;-80
2023/08/24 06:59:13;;;;;;;19.50;15.40;;;;;;;;;;5030636;28;20484;-79
2023/08/24 07:01:59;;;;;;;21.42;14.65;;;;;;;;;;5032630;28;20049;-80
2023/08/24 07:04:45;;;;;;;19.20;15.23;;;;;;;;;;5033118;28;20477;-80
2023/08/24 07:07:31;;;;;;;20.90;14.43;;;;;;;;;;5032369;28;20057;-80
2023/08/24 07:10:17;;;;;;;18.17;13.80;;;;;;;;;;5032905;28;20037;-79
2023/08/24 07:13:04;;;;;;;19.00;14.38;;;;;;;;;;5038287;28;20045;-80
2023/08/24 07:15:49;;;;;;;17.92;14.13;;;;;;;;;;5045649;28;20476;-80
2023/08/24 07:18:35;;;;;;;17.60;14.45;;;;;;;;;;5032775;28;20053;-80
2023/08/24 07:21:20;;;;;;;21.63;14.18;;;;;;;;;;5031256;28;20384;-81
2023/08/24 07:24:07;;;;;;;15.93;13.40;;;;;;;;;;5032557;28;20588;-81
2023/08/24 07:26:53;;;;;;;21.48;14.18;;;;;;;;;;5038701;28;20057;-80
2023/08/24 07:29:38;;;;;;;15.50;13.63;;;;;;;;;;5038263;28;20049;-80
2023/08/24 07:32:24;;;;;;;18.85;13.45;;;;;;;;;;5037715;28;20045;-79
2023/08/24 07:35:09;;;;;;;17.00;13.95;;;;;;;;;;5038299;28;20041;-80
2023/08/24 07:37:56;;;;;;;19.15;13.48;;;;;;;;;;5037951;28;20049;-80
2023/08/24 07:40:42;;;;;;;27.58;14.73;;;;;;;;;;5037863;28;20037;-79
2023/08/24 07:43:27;;;;;;;30.02;14.38;;;;;;;;;;5038899;28;20472;-80
2023/08/24 07:46:13;;;;;;;24.13;14.93;;;;;;;;;;5040660;28;20411;-81
2023/08/24 07:48:58;;;;;;;16.45;14.70;;;;;;;;;;5030755;28;20049;-80
2023/08/24 07:51:44;;;;;;;17.00;14.48;;;;;;;;;;5032123;28;20041;-79
2023/08/24 07:54:29;;;;;;;20.10;13.90;;;;;;;;;;5031533;28;20041;-82
2023/08/24 07:57:14;;;;;;;18.42;14.40;;;;;;;;;;5031992;28;20037;-81
2023/08/24 08:00:00;;;;;;;16.70;14.82;;;;;;;;;;5032148;28;20049;-79
2023/08/24 08:02:45;;;;;;;23.10;14.43;;;;;;;;;;5031414;28;20053;-81
2023/08/24 08:05:31;;;;;;;22.45;14.45;;;;;;;;;;5031721;28;20034;-80
2023/08/24 08:08:16;;;;;;;21.10;15.02;;;;;;;;;;5030929;28;20041;-79
2023/08/24 08:11:02;;;;;;;19.33;14.40;;;;;;;;;;5031729;28;20053;-82
2023/08/24 08:13:48;;;;;;;16.30;14.40;;;;;;;;;;5031665;28;20033;-81
2023/08/24 08:16:34;;;;;;;20.23;14.70;;;;;;;;;;5031102;28;20049;-78
2023/08/24 08:19:21;;;;;;;23.25;14.93;;;;;;;;;;5031725;28;20049;-81
2023/08/24 08:22:07;;;;;;;24.50;14.45;;;;;;;;;;5031433;28;20049;-80
2023/08/24 08:24:56;;;;;;;15.82;13.75;;;;;;;;;;5031061;28;20041;-79
2023/08/24 08:27:41;;;;;;;20.60;14.27;;;;;;;;;;5031024;28;20481;-80
2023/08/24 08:30:27;;;;;;;18.70;14.63;;;;;;;;;;5023184;28;20053;-80
2023/08/24 08:33:13;;;;;;;21.77;13.95;;;;;;;;;;5030381;28;20388;-79
2023/08/24 08:35:58;;;;;;;32.42;14.73;;;;;;;;;;5030496;28;20476;-80
2023/08/24 08:38:44;;;;;;;18.00;13.57;;;;;;;;;;5030994;28;20420;-82
2023/08/24 08:41:37;;;;;;;23.02;14.82;;;;;;;;;;5031320;28;20045;-81
2023/08/24 08:44:24;;;;;;;21.30;14.73;;;;;;;;;;5036568;28;20041;-80
2023/08/24 08:47:11;;;;;;;17.13;13.13;;;;;;;;;;5031002;28;20263;-80
2023/08/24 08:49:56;;;;;;;16.98;11.07;;;;;;;;;;5030937;28;20058;-80
2023/08/24 08:52:41;;;;;;;14.90;12.15;;;;;;;;;;5030301;28;20033;-80
2023/08/24 08:55:30;;;;;;;19.02;12.75;;;;;;;;;;5029873;28;20041;-79
2023/08/24 08:58:15;;;;;;;15.73;12.20;;;;;;;;;;5030519;28;20041;-79
2023/08/24 09:01:03;;;;;;;17.58;12.10;;;;;;;;;;5029299;28;20046;-78
2023/08/24 09:03:49;;;;;;;16.23;11.75;;;;;;;;;;5030789;28;20045;-79
2023/08/24 09:06:35;;;;;;;15.50;12.30;;;;;;;;;;5028132;28;20400;-79
2023/08/24 09:09:22;;;;;;;15.35;12.00;;;;;;;;;;5028697;28;20049;-78
2023/08/24 09:12:08;;;;;;;15.60;11.77;;;;;;;;;;5030014;28;20041;-78
2023/08/24 09:14:54;;;;;;;17.95;12.02;;;;;;;;;;5030353;28;20120;-79
2023/08/24 09:17:43;;;;;;;16.77;12.25;;;;;;;;;;5030347;28;20038;-80
2023/08/24 09:20:30;;;;;;;13.23;10.43;;;;;;;;;;5030121;28;20041;-79
2023/08/24 09:23:20;;;;;;;17.98;12.00;;;;;;;;;;5030247;28;20500;-80
2023/08/24 09:26:05;;;;;;;16.23;11.30;;;;;;;;;;5030154;28;20388;-80
2023/08/24 09:28:50;;;;;;;17.02;11.35;;;;;;;;;;5030425;28;20037;-77
2023/08/24 09:31:37;;;;;;;18.27;11.02;;;;;;;;;;5029431;28;20038;-77
2023/08/24 09:34:26;;;;;;;15.15;11.70;;;;;;;;;;5029845;28;20046;-77
2023/08/24 09:37:17;;;;;;;14.20;11.27;;;;;;;;;;5029153;28;20041;-78
2023/08/24 09:40:07;;;;;;;17.90;12.18;;;;;;;;;;5034800;28;20046;-79
2023/08/24 09:42:53;;;;;;;17.45;11.40;;;;;;;;;;5029110;28;20057;-79
2023/08/24 09:45:38;;;;;;;18.83;12.23;;;;;;;;;;5029587;28;20049;-77
2023/08/24 09:48:24;;;;;;;15.20;12.70;;;;;;;;;;5028586;28;20029;-78
2023/08/24 09:51:11;;;;;;;18.98;11.32;;;;;;;;;;5030098;28;20037;-77
2023/08/24 09:54:00;;;;;;;16.48;12.93;;;;;;;;;;5029130;28;20452;-78
2023/08/24 09:56:48;;;;;;;16.38;12.73;;;;;;;;;;5030217;28;20033;-79
2023/08/24 09:59:34;;;;;;;21.63;13.05;;;;;;;;;;5029782;28;20038;-79
2023/08/24 10:02:23;;;;;;;14.73;12.60;;;;;;;;;;5029646;28;20041;-78
2023/08/24 10:05:11;;;;;;;20.10;13.88;;;;;;;;;;5029944;28;20053;-78
2023/08/24 10:07:58;;;;;;;14.13;12.50;;;;;;;;;;5035111;28;20045;-80
2023/08/24 10:10:43;;;;;;;15.50;12.20;;;;;;;;;;5029919;28;20046;-79
2023/08/24 10:13:49;;;;;;;15.07;12.52;;;;;;;;;;5031720;28;20423;-79
2023/08/24 10:16:36;;;;;;;16.00;11.93;;;;;;;;;;5031622;28;20041;-81
2023/08/24 10:19:22;;;;;;;17.08;12.02;;;;;;;;;;5039431;28;20053;-77
2023/08/24 10:22:08;;;;;;;14.52;12.35;;;;;;;;;;5033873;28;20038;-76
2023/08/24 10:24:55;;;;;;;12.52;11.23;;;;;;;;;;5033799;28;20057;-78
2023/08/24 10:27:45;;;;;;;17.10;11.93;;;;;;;;;;5032896;28;20108;-79
2023/08/24 10:30:30;;;;;;;18.38;13.30;;;;;;;;;;5033691;28;20045;-76
2023/08/24 10:33:16;;;;;;;15.63;12.27;;;;;;;;;;5033547;28;20516;-79
2023/08/24 10:36:05;;;;;;;15.20;12.13;;;;;;;;;;5034002;28;20045;-78
2023/08/24 10:38:55;;;;;;;18.02;11.73;;;;;;;;;;5039594;28;20037;-77
2023/08/24 10:41:52;;;;;;;15.85;12.45;;;;;;;;;;5038777;28;20053;-78
2023/08/24 10:44:39;;;;;;;14.15;11.63;;;;;;;;;;5032670;28;20057;-78
2023/08/24 10:47:28;;;;;;;16.05;11.82;;;;;;;;;;5032867;28;20492;-78
2023/08/24 10:50:15;;;;;;;14.20;11.25;;;;;;;;;;5032256;28;20050;-78
2023/08/24 10:52:59;;;;;;;14.63;11.25;;;;;;;;;;5032928;28;20380;-78
2023/08/24 10:55:45;;;;;;;21.33;11.68;;;;;;;;;;5040121;28;20053;-78
2023/08/24 10:58:34;;;;;;;14.63;11.57;;;;;;;;;;5032969;28;20041;-78
2023/08/24 11:01:23;;;;;;;19.90;11.98;;;;;;;;;;5031934;28;20400;-79
2023/08/24 11:04:08;;;;;;;16.10;11.93;;;;;;;;;;5032665;28;20049;-81
2023/08/24 11:06:55;;;;;;;19.50;11.27;;;;;;;;;;5032630;28;20049;-78
2023/08/24 11:09:50;;;;;;;18.52;11.27;;;;;;;;;;5032697;28;20041;-78
2023/08/24 11:13:03;;;;;;;15.48;11.82;;;;;;;;;;5031736;28;20038;-79
2023/08/24 11:15:54;;;;;;;16.83;11.60;;;;;;;;;;5030526;28;20045;-80
2023/08/24 11:18:39;;;;;;;14.68;11.95;;;;;;;;;;5031511;28;20049;-78
2023/08/24 11:21:26;;;;;;;14.52;11.23;;;;;;;;;;5030754;28;20042;-79
2023/08/24 11:24:16;;;;;;;18.58;11.60;;;;;;;;;;5031634;28;20053;-79
2023/08/24 11:27:03;;;;;;;14.05;11.52;;;;;;;;;;5031927;28;20057;-77
2023/08/24 11:29:59;;;;;;;13.40;10.95;;;;;;;;;;5037219;28;20041;-76
2023/08/24 11:32:52;;;;;;;15.20;11.70;;;;;;;;;;5030388;28;20041;-78
2023/08/24 11:35:43;;;;;;;14.00;10.75;;;;;;;;;;5032319;28;20042;-78
2023/08/24 11:38:42;;;;;;;15.70;10.95;;;;;;;;;;5031573;28;20050;-80
2023/08/24 11:41:27;;;;;;;13.18;11.18;;;;;;;;;;5031882;28;20488;-77
2023/08/24 11:44:13;;;;;;;14.93;10.90;;;;;;;;;;5030694;28;20049;-79
2023/08/24 11:46:59;;;;;;;16.30;10.13;;;;;;;;;;5030662;28;20042;-79
2023/08/24 11:49:44;;;;;;;20.20;8.88;;;;;;;;;;5033159;28;20426;-81
2023/08/24 11:52:29;;;;;;;13.40;8.43;;;;;;;;;;5031461;28;20033;-77
2023/08/24 11:55:16;;;;;;;12.95;8.07;;;;;;;;;;5030755;28;20412;-78
2023/08/24 11:58:01;;;;;;;10.40;7.75;;;;;;;;;;5030668;28;20046;-76
2023/08/24 12:00:47;;;;;;;11.73;8.25;;;;;;;;;;5031479;28;20429;-79
2023/08/24 12:03:32;;;;;;;10.30;6.90;;;;;;;;;;5030187;28;20053;-78
2023/08/24 12:06:18;;;;;;;9.95;7.22;;;;;;;;;;5031934;28;20038;-81
2023/08/24 12:09:07;;;;;;;13.15;7.15;;;;;;;;;;5031564;28;20037;-78
2023/08/24 12:11:56;;;;;;;9.27;7.80;;;;;;;;;;5037453;28;20046;-80
2023/08/24 12:14:45;;;;;;;9.20;7.07;;;;;;;;;;5031291;28;20496;-77
2023/08/24 12:17:30;;;;;;;12.48;6.47;;;;;;;;;;5031007;28;20049;-80
2023/08/24 12:20:18;;;;;;;12.85;7.00;;;;;;;;;;5037130;28;20045;-79
2023/08/24 12:23:04;;;;;;;12.45;6.90;;;;;;;;;;5031255;28;20041;-79
2023/08/24 12:25:54;;;;;;;12.23;8.32;;;;;;;;;;5031026;28;20428;-80
2023/08/24 12:28:40;;;;;;;17.95;8.40;;;;;;;;;;5030279;28;20049;-79
2023/08/24 12:31:28;;;;;;;16.60;9.20;;;;;;;;;;5031235;28;20404;-79
2023/08/24 12:34:15;;;;;;;19.33;9.65;;;;;;;;;;5030248;28;20041;-80
2023/08/24 12:37:00;;;;;;;17.30;11.07;;;;;;;;;;5029427;28;20038;-78
2023/08/24 12:39:46;;;;;;;16.02;11.07;;;;;;;;;;5030756;28;20033;-77
2023/08/24 12:42:32;;;;;;;19.48;11.88;;;;;;;;;;5029069;28;20045;-78
2023/08/24 12:45:17;;;;;;;16.17;11.43;;;;;;;;;;5029236;28;20049;-78
2023/08/24 12:48:03;;;;;;;21.63;11.88;;;;;;;;;;5029690;28;20042;-78
2023/08/24 12:50:49;;;;;;;17.95;11.68;;;;;;;;;;5028848;28;20037;-78
2023/08/24 12:53:34;;;;;;;17.42;10.90;;;;;;;;;;5030616;28;20038;-77
2023/08/24 12:56:20;;;;;;;16.42;11.45;;;;;;;;;;5030395;28;20049;-78
2023/08/24 12:59:06;;;;;;;15.68;9.85;;;;;;;;;;5030836;28;20472;-79
2023/08/24 13:01:51;;;;;;;13.68;11.52;;;;;;;;;;5031076;28;20392;-79
2023/08/24 13:04:37;;;;;;;15.57;11.15;;;;;;;;;;5029144;28;20049;-80
2023/08/24 13:07:22;;;;;;;13.98;11.52;;;;;;;;;;5036288;28;20037;-78
2023/08/24 13:10:08;;;;;;;18.73;11.50;;;;;;;;;;5030238;28;20045;-79
2023/08/24 13:12:53;;;;;;;22.52;11.13;;;;;;;;;;5030813;28;20041;-78
2023/08/24 13:15:38;;;;;;;19.52;11.45;;;;;;;;;;5029890;28;20049;-79
2023/08/24 13:18:23;;;;;;;19.60;12.90;;;;;;;;;;5029115;28;20045;-80
2023/08/24 13:21:08;;;;;;;17.75;11.80;;;;;;;;;;5036281;28;20049;-79
2023/08/24 13:23:54;;;;;;;19.70;11.07;;;;;;;;;;5029928;28;20049;-79
2023/08/24 13:26:40;;;;;;;15.88;10.43;;;;;;;;;;5030190;28;20045;-79
2023/08/24 13:29:25;;;;;;;12.40;10.13;;;;;;;;;;5030556;28;21245;-79
2023/08/24 13:32:11;;;;;;;15.25;10.25;;;;;;;;;;5029781;28;20472;-77
2023/08/24 13:34:56;;;;;;;18.17;11.43;;;;;;;;;;5030088;28;20037;-80
2023/08/24 13:37:42;;;;;;;17.17;11.95;;;;;;;;;;5029999;28;20045;-79
2023/08/24 13:40:27;;;;;;;15.60;10.85;;;;;;;;;;5036109;28;20476;-82
2023/08/24 13:43:13;;;;;;;14.65;10.60;;;;;;;;;;5030283;28;20041;-77
2023/08/24 13:45:59;;;;;;;13.57;10.40;;;;;;;;;;5029521;28;20053;-79
2023/08/24 13:48:44;;;;;;;19.38;10.82;;;;;;;;;;5028377;28;20049;-79
2023/08/24 13:51:29;;;;;;;16.63;10.73;;;;;;;;;;5030082;28;20045;-80
2023/08/24 13:54:18;;;;;;;16.05;10.77;;;;;;;;;;5030261;28;20500;-80
2023/08/24 13:57:03;;;;;;;18.35;10.63;;;;;;;;;;5029257;28;20057;-79
2023/08/24 13:59:49;;;;;;;24.73;10.90;;;;;;;;;;5029214;28;20033;-80
2023/08/24 14:02:34;;;;;;;13.48;10.82;;;;;;;;;;5029946;28;20037;-79
2023/08/24 14:05:20;;;;;;;15.52;10.25;;;;;;;;;;5029023;28;20037;-78
2023/08/24 14:08:05;;;;;;;14.35;10.77;;;;;;;;;;5029260;28;20041;-79
2023/08/24 14:10:52;;;;;;;18.13;11.07;;;;;;;;;;5028631;28;20050;-80
2023/08/24 14:13:37;;;;;;;14.10;10.90;;;;;;;;;;5028158;28;20045;-78
2023/08/24 14:16:23;;;;;;;16.95;11.82;;;;;;;;;;5035062;28;20484;-80
2023/08/24 14:19:09;;;;;;;20.65;12.93;;;;;;;;;;5029436;28;20045;-78
2023/08/24 14:21:54;;;;;;;19.25;12.32;;;;;;;;;;5029634;28;20042;-80
2023/08/24 14:24:40;;;;;;;16.73;11.65;;;;;;;;;;5029211;28;20057;-77
2023/08/24 14:27:26;;;;;;;13.18;11.20;;;;;;;;;;5029297;28;20045;-80
2023/08/24 14:30:13;;;;;;;11.60;8.60;;;;;;;;;;5029826;28;20042;-79
2023/08/24 14:37:16;;;;;;;14.73;9.77;;;;;;;;;;5036801;28;20136;-80
2023/08/24 14:40:03;;;;;;;15.50;10.75;;;;;;;;;;5029425;28;20034;-80
2023/08/24 14:42:48;;;;;;;15.23;9.23;;;;;;;;;;5029111;28;20042;-77
2023/08/24 14:45:34;;;;;;;12.50;8.70;;;;;;;;;;5029795;28;20045;-79
2023/08/24 14:48:19;;;;;;;13.43;8.60;;;;;;;;;;5029225;28;20054;-78
2023/08/24 14:51:05;;;;;;;15.23;8.40;;;;;;;;;;5029422;28;20087;-78
2023/08/24 14:53:51;;;;;;;13.10;7.88;;;;;;;;;;5029364;28;20045;-79
2023/08/24 14:56:36;;;;;;;12.25;7.40;;;;;;;;;;5029225;28;20392;-79
2023/08/24 14:59:22;;;;;;;8.50;7.15;;;;;;;;;;5035161;28;20041;-79
2023/08/24 15:02:07;;;;;;;9.73;7.30;;;;;;;;;;5032693;28;20049;-79
2023/08/24 15:04:54;;;;;;;10.45;7.15;;;;;;;;;;5032837;28;20041;-79
2023/08/24 15:07:39;;;;;;;10.93;7.60;;;;;;;;;;5032029;28;20480;-80
2023/08/24 15:10:26;;;;;;;13.63;9.00;;;;;;;;;;5031573;28;20053;-80
2023/08/24 15:13:12;;;;;;;16.45;7.90;;;;;;;;;;5032329;28;20041;-78
2023/08/24 15:15:58;;;;;;;10.75;7.90;;;;;;;;;;5032425;28;20037;-79
2023/08/24 15:18:43;;;;;;;13.93;7.38;;;;;;;;;;5024168;28;20038;-78
2023/08/24 15:21:28;;;;;;;11.93;7.82;;;;;;;;;;5032420;28;20053;-78
2023/08/24 15:24:13;;;;;;;11.38;8.32;;;;;;;;;;5032252;28;20041;-78
2023/08/24 15:26:58;;;;;;;9.25;8.32;;;;;;;;;;5038084;28;20049;-81
2023/08/24 15:29:43;;;;;;;9.85;8.55;;;;;;;;;;5031597;28;20046;-80
2023/08/24 15:32:28;;;;;;;11.80;8.60;;;;;;;;;;5031339;28;20476;-79
2023/08/24 15:35:15;;;;;;;13.15;8.65;;;;;;;;;;5038129;28;20046;-78
2023/08/24 15:38:00;;;;;;;14.68;8.93;;;;;;;;;;5031735;28;20049;-80
2023/08/24 15:40:52;;;;;;;14.20;8.35;;;;;;;;;;5031862;28;20042;-81
2023/08/24 15:43:38;;;;;;;9.90;7.95;;;;;;;;;;5036774;28;20045;-79
2023/08/24 15:46:23;;;;;;;14.48;8.48;;;;;;;;;;5031590;28;20042;-78
2023/08/24 15:49:08;;;;;;;12.27;8.32;;;;;;;;;;5030156;28;20057;-78
2023/08/24 15:51:54;;;;;;;10.35;8.30;;;;;;;;;;5031558;28;20041;-82
2023/08/24 15:54:39;;;;;;;11.38;8.27;;;;;;;;;;5031905;28;20071;-80
2023/08/24 15:57:25;;;;;;;10.70;8.02;;;;;;;;;;5030058;28;20045;-78
2023/08/24 16:00:11;;;;;;;12.60;8.40;;;;;;;;;;5032003;28;20081;-79
2023/08/24 16:02:59;;;;;;;11.45;9.15;;;;;;;;;;5031210;28;20045;-80
2023/08/24 16:05:44;;;;;;;18.23;9.15;;;;;;;;;;5036496;28;20451;-79
2023/08/24 16:08:31;;;;;;;12.23;9.00;;;;;;;;;;5031957;28;20468;-79
2023/08/24 16:11:16;;;;;;;15.13;9.32;;;;;;;;;;5030596;28;20037;-79
2023/08/24 16:14:03;;;;;;;11.90;8.43;;;;;;;;;;5031442;28;20112;-78
2023/08/24 16:16:48;;;;;;;15.50;9.55;;;;;;;;;;5031565;28;20049;-79